• location
  • image
mod_vvisit_countermod_vvisit_countermod_vvisit_countermod_vvisit_countermod_vvisit_countermod_vvisit_counter
mod_vvisit_counterToday517
mod_vvisit_counterYesterday1117
mod_vvisit_counterThis week2384
mod_vvisit_counterLast week6262
mod_vvisit_counterThis month21262
mod_vvisit_counterLast month35742
mod_vvisit_counterAll days659620

We have: 4 guests, 1 bots online
Your IP: 54.162.245.198
 , 
Today: May 24, 2017
Airport

Certifications

 

DIRECTOR OF STATE FOOD AND VETERINARY SERVICE

ORDER  FOR ANIMAL FOOD MANAGEMENT SUBJECT VETERINARY APPROVAL

 



 

SIAULIAI STATE FOOD AND VETERINARY SERVICE OF STATE FOOD AND VETERINARY SERVICE

FOOD MANAGEMENT SUBJECT APPROVAL CERTIFICATE

Today

Wednesday, 24 May 2017

Weather Forecast

Siauliai °C
   

Aviation Weather Forecast

[source: ADDS]
METAR
EYSA 241720Z 02005KT 9999 BKN049 12/08 Q1012 BLU NOSIG =
TAF
TAF EYSA 241700Z 2418/2503 36010KT 8000 BKN025 TEMPO 2421/2424 3000 MIFG BR TEMPO 2500/2503 1500 MIFG BR SCT005 =
SR / SS: 02:04 / 18:44 UTC (EYSA 2017-05-24)

Search

Who's Online

We have 4 guests online

tic logo en